createdAt,value
2018-06-10T00:01:32.949Z,6.9
2018-06-10T00:12:52.904Z,4.8
2018-06-10T00:34:10.646Z,6.1
2018-06-10T00:47:46.659Z,9.2
2018-06-10T00:58:03.797Z,6.0
2018-06-10T01:34:33.127Z,8.9
2018-06-10T01:48:17.767Z,13.7
2018-06-10T01:59:03.244Z,10.8
2018-06-10T02:09:18.247Z,8.0
2018-06-10T02:19:31.714Z,11.9
2018-06-10T02:29:45.955Z,10.3
2018-06-10T02:40:31.821Z,15.8
2018-06-10T02:51:20.776Z,17.0
2018-06-10T03:01:34.501Z,9.1
2018-06-10T03:11:49.140Z,11.0
2018-06-10T03:22:03.201Z,12.5
2018-06-10T03:32:17.354Z,8.0
2018-06-10T03:42:31.698Z,10.4
2018-06-10T03:52:46.759Z,8.1
2018-06-10T04:03:33.103Z,13.5
2018-06-10T04:13:46.895Z,11.7
2018-06-10T04:24:32.862Z,20.3
2018-06-10T04:34:46.815Z,10.2
2018-06-10T04:45:01.105Z,10.5
2018-06-10T04:55:12.327Z,10.7
2018-06-10T05:05:57.442Z,12.6
2018-06-10T05:16:11.242Z,10.3
2018-06-10T05:26:25.671Z,9.4
2018-06-10T05:37:10.563Z,17.1
2018-06-10T05:47:54.931Z,13.1
2018-06-10T05:58:40.050Z,18.1
2018-06-10T06:09:24.916Z,15.1
2018-06-10T06:19:36.840Z,13.4
2018-06-10T06:29:50.985Z,12.4
2018-06-10T06:40:05.224Z,14.5
2018-06-10T06:50:19.904Z,11.9
2018-06-10T07:00:33.867Z,12.1
2018-06-10T07:11:19.502Z,19.0
2018-06-10T07:21:33.755Z,9.6
2018-06-10T07:31:48.065Z,11.2
2018-06-10T07:42:33.818Z,14.7
2018-06-10T07:52:47.672Z,11.8
2018-06-10T08:03:32.253Z,17.4
2018-06-10T08:14:27.624Z,19.4
2018-06-10T08:24:41.745Z,17.1
2018-06-10T08:35:31.061Z,15.7
2018-06-10T08:45:44.961Z,10.2
2018-06-10T08:56:00.165Z,9.6
2018-06-10T09:06:15.040Z,10.1
2018-06-10T09:16:28.751Z,9.2
2018-06-10T09:26:55.323Z,8.1
2018-06-10T09:37:54.954Z,10.5
2018-06-10T09:48:10.313Z,10.4
2018-06-10T09:58:24.237Z,7.9
2018-06-10T10:08:40.889Z,7.4
2018-06-10T10:18:54.974Z,7.2
2018-06-10T10:40:41.356Z,7.0
2018-06-10T10:50:56.246Z,7.6
2018-06-10T11:01:23.283Z,6.1
2018-06-10T11:11:38.334Z,5.9
2018-06-10T11:22:22.894Z,7.3
2018-06-10T11:33:08.532Z,5.7
2018-06-10T11:43:21.726Z,4.9
2018-06-10T11:53:36.035Z,7.1
2018-06-10T12:04:27.038Z,6.4
2018-06-10T12:14:40.855Z,4.9
2018-06-10T12:24:55.466Z,6.3
2018-06-10T12:35:09.494Z,5.2
2018-06-10T12:45:21.720Z,4.6
2018-06-10T12:55:33.783Z,4.4
2018-06-10T13:06:21.544Z,5.4
2018-06-10T13:16:34.085Z,5.1
2018-06-10T13:26:48.348Z,4.5
2018-06-10T13:37:02.372Z,4.8
2018-06-10T13:47:47.192Z,5.6
2018-06-10T13:58:48.965Z,5.6
2018-06-10T14:10:02.784Z,4.2
2018-06-10T14:20:56.213Z,5.1
2018-06-10T14:31:11.480Z,3.8
2018-06-10T14:41:57.606Z,3.3
2018-06-10T14:52:48.948Z,5.8
2018-06-10T15:03:35.731Z,4.7
2018-06-10T15:14:38.209Z,4.7
2018-06-10T15:25:27.630Z,4.8
2018-06-10T15:35:47.305Z,3.8
2018-06-10T15:46:01.492Z,3.6
2018-06-10T15:56:21.495Z,4.9
2018-06-10T16:08:42.285Z,5.2
2018-06-10T16:20:14.527Z,4.5
2018-06-10T16:30:35.987Z,4.9
2018-06-10T16:40:54.017Z,4.7
2018-06-10T16:55:19.507Z,5.5
2018-06-10T17:08:45.951Z,7.1
2018-06-10T17:19:36.202Z,6.0
2018-06-10T17:29:59.716Z,5.3
2018-06-10T17:40:48.232Z,6.1
2018-06-10T17:52:07.048Z,6.8
2018-06-10T18:02:44.657Z,6.4
2018-06-10T18:13:18.160Z,5.6
2018-06-10T18:23:48.013Z,5.1
2018-06-10T19:44:27.624Z,4.9
2018-06-10T19:57:01.897Z,5.5
2018-06-10T20:08:27.629Z,5.0
2018-06-10T20:36:05.568Z,7.0
2018-06-10T20:47:01.863Z,7.5
2018-06-10T20:57:56.229Z,6.7
2018-06-10T21:19:03.202Z,7.7
2018-06-10T21:41:44.448Z,9.0
2018-06-10T21:52:36.953Z,7.3
2018-06-10T22:03:25.901Z,8.2
2018-06-10T22:14:20.993Z,9.5
2018-06-10T22:57:29.095Z,8.7
2018-06-10T23:30:36.830Z,8.8
2018-06-10T23:41:28.800Z,8.9
2018-06-10T23:52:27.797Z,11.5
